Latest Weather Observations for Cape Jaffa

IDS60801

Issued at 11:05 pm CST Wednesday 23 July 2014 (issued every 30 minutes, with the page automatically refreshed every 10 minutes)

About weather observations | Map of weather stations | Latest weather observations for SA | Other Formats
Station Details ID: 026095 Name: THE LIMESTONE Lat: -36.97 Lon: 139.72 Height: 17.0 m
Data from the previous 72 hours. | See also: Recent months at Cape Jaffa
Date/Time
CST
Temp
°C
App
Temp
°C
Dew
Point
Rel
Hum
%
Delta-T
°C
Wind Press
QNH
hPa
Press
MSL
hPa
Rain
since 9 am
mm
Dir
 
Spd
km/h
Gust
km/h
Spd
kts
Gust
kts
23/11:00pm 8.6 4.2 6.7 88 0.9 ENE 19 26 10 14 1013.9 - -
23/10:30pm 8.8 4.3 6.8 87 0.9 ENE 20 26 11 14 1014.3 1014.3 -
23/10:00pm 8.8 4.4 6.6 86 1.0 ENE 19 22 10 12 1014.3 - -
23/09:30pm 8.8 4.4 6.6 86 1.0 ENE 19 22 10 12 1014.6 1014.6 -
23/09:00pm 8.8 5.2 6.6 86 1.0 ENE 15 19 8 10 1014.6 1014.6 0.6
23/08:30pm 8.9 4.9 6.5 85 1.1 NE 17 22 9 12 1014.7 1014.7 -
23/08:00pm 9.4 4.9 6.1 80 1.5 ENE 19 24 10 13 1014.0 - -
23/07:30pm 9.7 4.2 6.1 78 1.7 E 24 30 13 16 1013.6 1013.6 -
23/07:00pm 9.7 4.6 6.2 79 1.6 E 22 32 12 17 1013.7 - -
23/06:30pm 9.7 3.9 6.4 80 1.5 E 26 35 14 19 1013.6 1013.6 -
23/06:00pm 10.3 5.7 5.7 73 2.1 ENE 19 22 10 12 1014.6 1014.6 -
23/05:30pm 10.7 6.1 5.5 70 2.4 ENE 19 26 10 14 1014.8 1014.8 -
23/05:00pm 10.9 5.7 5.7 70 2.4 ENE 22 26 12 14 1014.8 - -
23/04:30pm 11.3 6.9 6.4 72 2.3 ENE 19 22 10 12 1015.0 1015.0 -
23/04:00pm 11.6 7.2 6.7 72 2.3 ENE 19 22 10 12 1015.1 - -
23/03:30pm 11.9 7.5 6.4 69 2.6 ENE 19 24 10 13 1015.3 1015.3 -
23/03:00pm 11.5 7.0 6.2 70 2.5 ENE 19 24 10 13 1015.4 1015.4 -
23/02:30pm 11.4 6.8 6.3 71 2.4 ENE 20 26 11 14 1015.5 1015.5 -
23/02:00pm 11.2 6.0 5.5 68 2.6 ENE 22 26 12 14 1015.7 - -
23/01:30pm 11.0 5.7 5.1 67 2.7 ENE 22 30 12 16 1016.1 1016.1 -
23/01:00pm 11.2 5.5 5.1 66 2.8 ENE 24 32 13 17 1016.5 - -
23/12:30pm 11.0 5.3 5.1 67 2.7 ENE 24 30 13 16 1017.1 1017.1 -
23/12:00pm 11.2 5.2 5.5 68 2.6 NE 26 32 14 17 1018.1 1018.1 -
23/11:30am 10.4 4.8 5.2 70 2.4 ENE 24 32 13 17 1018.6 1018.6 0.2
23/11:00am 8.4 2.9 4.0 74 1.9 ENE 22 26 12 14 1019.3 - 0.2
23/09:00am 6.2 1.2 3.7 84 1.1 ENE 19 24 10 13 1020.3 1020.3 0.0
23/08:30am 5.4 1.1 3.4 87 0.8 ENE 15 17 8 9 1020.7 1020.7 0.0
23/08:00am 5.1 0.4 3.1 87 0.8 ENE 17 20 9 11 1020.7 - 0.0
23/07:30am 4.7 -0.5 2.6 86 0.8 E 19 22 10 12 1020.6 1020.6 0.0
23/07:00am 5.0 0.2 2.7 85 0.9 ENE 17 20 9 11 1020.7 - 0.0
23/06:30am 4.7 0.3 2.6 86 0.8 E 15 19 8 10 1020.8 1020.8 0.0
23/06:00am 4.2 -0.3 2.1 86 0.8 E 15 19 8 10 1020.8 1020.8 0.0
23/05:30am 4.0 0.2 1.9 86 0.8 E 11 13 6 7 1021.0 1021.0 0.0
23/05:00am 4.2 0.0 1.9 85 0.9 ENE 13 15 7 8 1021.0 - 0.0
23/04:30am 4.2 0.0 1.9 85 0.9 ENE 13 17 7 9 1021.2 1021.2 0.0
23/04:00am 4.2 0.0 1.9 85 0.9 ENE 13 17 7 9 1021.4 - 0.0
23/03:30am 4.4 -0.1 2.1 85 0.9 ENE 15 19 8 10 1021.4 1021.4 0.0
23/03:00am 4.4 -0.1 2.1 85 0.9 ENE 15 17 8 9 1021.6 1021.6 0.0
23/02:30am 4.4 -0.1 2.3 86 0.8 ENE 15 17 8 9 1021.7 1021.7 0.0
23/02:00am 4.6 0.2 2.5 86 0.8 ENE 15 17 8 9 1021.9 - 0.0
23/01:30am 4.7 0.3 2.7 87 0.8 ENE 15 17 8 9 1022.0 1022.0 0.0
23/01:00am 4.5 0.1 2.5 87 0.8 ENE 15 15 8 8 1022.1 - 0.0
23/12:30am 5.2 0.8 2.9 85 0.9 ENE 15 17 8 9 1022.1 1022.1 0.0
23/12:00am 5.8 1.5 3.3 84 1.0 ENE 15 19 8 10 1022.2 1022.2 0.0
 
Date/Time
CST
Temp
°C
App
Temp
°C
Dew
Point
Rel
Hum
%
Delta-T
°C
Wind Press
QNH
hPa
Press
MSL
hPa
Rain
since 9 am
mm
Dir
 
Spd
km/h
Gust
km/h
Spd
kts
Gust
kts
22/11:30pm 6.3 2.0 3.5 82 1.2 ENE 15 19 8 10 1022.3 1022.3 0.0
22/11:00pm 6.8 2.2 3.8 81 1.3 E 17 20 9 11 1022.5 - 0.0
22/10:30pm 7.1 3.0 4.1 81 1.3 E 15 19 8 10 1022.7 1022.7 0.0
22/10:00pm 7.1 3.0 4.1 81 1.3 E 15 19 8 10 1022.9 - 0.0
22/09:30pm 7.6 3.5 4.4 80 1.4 E 15 19 8 10 1023.1 1023.1 0.0
22/09:00pm 7.5 3.4 4.5 81 1.3 E 15 17 8 9 1023.3 1023.3 0.0
22/08:30pm 8.0 4.4 4.9 81 1.4 E 13 15 7 8 1023.4 1023.4 0.0
22/08:00pm 8.3 4.7 5.1 80 1.4 E 13 15 7 8 1023.5 - 0.0
22/07:30pm 8.8 5.2 5.2 78 1.6 E 13 15 7 8 1023.6 1023.6 0.0
22/07:00pm 8.8 5.6 5.2 78 1.6 E 11 13 6 7 1023.7 - 0.0
22/06:30pm 9.5 6.1 5.7 77 1.7 E 13 13 7 7 1023.0 1023.0 0.0
22/06:00pm 10.4 7.4 5.8 73 2.1 E 11 13 6 7 1023.0 1023.0 0.0
22/05:30pm 11.2 9.2 6.1 71 2.4 E 6 7 3 4 1023.0 1023.0 0.0
22/05:00pm 11.5 9.3 6.0 69 2.6 ENE 7 9 4 5 1022.7 - 0.0
22/04:30pm 13.7 11.7 7.2 65 3.2 E 7 11 4 6 1022.9 1022.9 0.0
22/04:00pm 14.3 11.6 7.4 63 3.4 ENE 11 13 6 7 1022.7 - 0.0
22/03:30pm 14.7 12.3 7.0 60 3.7 ENE 9 13 5 7 1022.7 1022.7 0.0
22/03:00pm 15.3 13.6 5.8 53 4.5 NE 4 9 2 5 1022.7 1022.7 0.0
22/02:30pm 14.7 12.2 5.0 52 4.5 NE 7 13 4 7 1022.8 1022.8 0.0
22/02:00pm 14.6 12.0 5.9 56 4.2 NNE 9 19 5 10 1023.0 - 0.0
22/01:30pm 13.4 10.1 4.8 56 4.0 N 11 15 6 8 1023.2 1023.2 0.0
22/01:00pm 13.8 11.0 7.1 64 3.3 NNE 11 13 6 7 1023.6 - 0.0
22/12:30pm 12.5 9.6 6.3 66 2.9 NE 11 15 6 8 1024.0 1024.0 0.0
22/12:00pm 11.9 8.3 6.6 70 2.5 N 15 19 8 10 1024.5 1024.5 0.0
22/11:30am 11.0 7.3 6.4 73 2.1 NNE 15 19 8 10 1024.9 1024.9 0.0
22/11:00am 10.7 7.4 6.5 75 2.0 NNE 13 19 7 10 1025.2 - 0.0
22/10:30am 9.6 6.4 6.7 82 1.3 NE 13 17 7 9 1025.4 1025.4 0.0
22/10:00am 8.5 5.2 6.5 87 0.9 NE 13 17 7 9 1025.6 - 0.0
22/09:30am 7.2 3.7 5.3 88 0.8 ENE 13 17 7 9 1025.5 1025.5 0.0
22/09:00am 6.2 2.6 4.8 91 0.6 ENE 13 17 7 9 1025.5 1025.5 -
22/08:30am 5.3 1.5 4.1 92 0.5 ENE 13 15 7 8 1025.4 1025.4 -
22/08:00am 3.7 -0.3 2.7 93 0.4 E 13 15 7 8 1025.2 - -
22/07:30am 3.1 -1.0 2.1 93 0.4 ENE 13 15 7 8 1025.0 1025.0 -
22/07:00am 3.0 -1.1 2.0 93 0.4 ENE 13 15 7 8 1024.8 - -
22/06:30am 3.0 -1.1 2.0 93 0.4 ENE 13 15 7 8 1024.4 1024.4 -
22/06:00am 3.2 -0.9 2.2 93 0.4 ENE 13 13 7 7 1024.1 1024.1 -
22/05:30am 3.5 -0.2 2.3 92 0.5 ENE 11 15 6 8 1024.1 1024.1 -
22/05:00am 3.5 -0.2 2.3 92 0.5 ENE 11 13 6 7 1024.0 - -
22/04:30am 3.7 0.0 2.5 92 0.5 ENE 11 13 6 7 1023.9 1023.9 -
22/04:00am 3.8 -0.2 2.6 92 0.5 ENE 13 13 7 7 1023.7 - -
22/03:30am 3.7 0.0 2.5 92 0.5 ENE 11 13 6 7 1023.6 1023.6 -
22/03:00am 4.0 0.0 2.8 92 0.5 ENE 13 15 7 8 1023.9 1023.9 0.0
22/02:30am 4.4 0.5 3.2 92 0.5 ENE 13 15 7 8 1023.9 1023.9 -
22/02:00am 4.3 0.3 3.1 92 0.5 ENE 13 15 7 8 1023.8 - -
22/01:30am 4.2 0.2 3.0 92 0.5 ENE 13 13 7 7 1023.8 1023.8 -
22/01:00am 4.5 0.9 3.2 91 0.5 E 11 13 6 7 1023.8 - -
22/12:30am 5.0 1.5 3.7 91 0.5 ENE 11 13 6 7 1023.9 1023.9 -
22/12:00am 4.9 1.0 3.6 91 0.5 ENE 13 15 7 8 1024.1 1024.1 -
 
Date/Time
CST
Temp
°C
App
Temp
°C
Dew
Point
Rel
Hum
%
Delta-T
°C
Wind Press
QNH
hPa
Press
MSL
hPa
Rain
since 9 am
mm
Dir
 
Spd
km/h
Gust
km/h
Spd
kts
Gust
kts
21/11:30pm 5.0 1.2 3.7 91 0.5 ENE 13 15 7 8 1024.1 1024.1 -
21/11:00pm 5.3 1.1 3.8 90 0.6 ENE 15 15 8 8 1024.1 - -
21/10:30pm 5.5 1.3 4.0 90 0.6 ENE 15 15 8 8 1024.0 1024.0 -
21/10:00pm 5.5 1.3 3.8 89 0.7 ENE 15 17 8 9 1023.9 - -
21/09:30pm 6.4 2.7 4.7 89 0.7 ENE 13 17 7 9 1023.8 1023.8 -
21/09:00pm 6.3 2.2 4.6 89 0.7 E 15 17 8 9 1023.7 1023.7 0.0
21/08:30pm 6.4 2.7 4.6 88 0.8 E 13 15 7 8 1023.6 1023.6 -
21/08:00pm 7.5 4.0 5.5 87 0.9 E 13 13 7 7 1023.5 - -
21/07:30pm 7.4 4.2 5.2 86 1.0 E 11 11 6 6 1023.4 1023.4 -
21/07:00pm 7.7 4.2 5.3 85 1.1 E 13 15 7 8 1023.3 - -
21/06:30pm 8.7 5.7 6.2 84 1.1 E 11 13 6 7 1023.0 1023.0 -
21/06:00pm 9.0 6.0 6.1 82 1.3 E 11 13 6 7 1023.0 1023.0 -
21/05:30pm 9.8 7.3 6.5 80 1.5 E 9 9 5 5 1022.6 1022.6 -
21/05:00pm 10.5 7.7 7.0 79 1.7 ENE 11 15 6 8 1022.3 - -
21/04:30pm 10.8 7.6 6.9 77 1.8 NE 13 15 7 8 1022.1 1022.1 -
21/04:00pm 11.4 8.6 6.9 74 2.1 NE 11 17 6 9 1022.1 - -
21/03:30pm 12.4 8.5 7.1 70 2.5 NE 17 20 9 11 1022.0 1022.0 -
21/03:00pm 12.2 8.0 7.3 72 2.4 NE 19 26 10 14 1021.9 1021.9 -
21/02:30pm 12.3 8.0 7.2 71 2.5 NE 19 24 10 13 1022.0 1022.0 -
21/02:00pm 11.8 8.3 7.1 73 2.3 NNE 15 20 8 11 1022.2 - -
21/01:30pm 11.5 6.9 6.4 71 2.4 NNE 20 26 11 14 1022.4 1022.4 -
21/01:00pm 11.2 6.2 6.5 73 2.2 NNE 22 28 12 15 1022.8 - -
21/12:30pm 11.3 7.0 6.8 74 2.1 NNE 19 26 10 14 1023.1 1023.1 -
21/12:00pm 11.4 6.9 6.9 74 2.1 NNE 20 26 11 14 1023.3 1023.3 0.0
21/11:30am 10.6 5.2 6.4 75 2.0 NE 24 30 13 16 1023.8 1023.8 0.0
21/11:00am 9.9 5.3 6.4 79 1.6 NNE 20 32 11 17 1024.1 - 0.0
21/10:30am 9.1 5.2 6.9 86 1.0 NE 17 22 9 12 1024.5 1024.5 0.0
21/10:00am 7.9 4.6 6.2 89 0.8 NE 13 17 7 9 1024.7 - 0.0
21/09:30am 7.0 3.5 5.5 90 0.7 ENE 13 17 7 9 1024.8 1024.8 0.0
21/09:00am 6.4 2.8 4.9 90 0.6 ENE 13 15 7 8 1024.9 1024.9 0.0
21/08:30am 5.8 2.5 4.4 91 0.6 ENE 11 15 6 8 1024.7 1024.7 0.0
21/08:00am 5.5 1.4 4.2 91 0.6 ENE 15 20 8 11 1024.4 - 0.0
21/07:30am 5.2 1.4 3.9 91 0.5 ENE 13 17 7 9 1024.3 1024.3 0.0
21/07:00am 5.1 1.3 3.8 91 0.5 E 13 15 7 8 1024.3 - 0.0
21/06:30am 5.2 1.7 3.7 90 0.6 E 11 13 6 7 1024.2 1024.2 0.0
21/06:00am 5.3 1.5 4.0 91 0.5 ENE 13 15 7 8 1024.1 1024.1 0.0
21/05:30am 5.3 1.5 3.8 90 0.6 NE 13 15 7 8 1023.9 1023.9 0.0
21/05:00am 5.4 1.6 3.9 90 0.6 ENE 13 17 7 9 1023.6 - 0.0
21/04:30am 5.6 2.6 4.1 90 0.6 ENE 9 13 5 7 1023.9 1023.9 0.0
21/04:00am 5.7 2.7 4.2 90 0.6 E 9 13 5 7 1023.8 - 0.0
21/03:30am 5.9 1.8 4.4 90 0.6 ENE 15 17 8 9 1023.7 1023.7 0.0
21/03:00am 6.0 2.3 4.3 89 0.7 NE 13 17 7 9 1023.8 1023.8 0.0
21/02:30am 6.2 2.1 4.5 89 0.7 NE 15 19 8 10 1024.1 1024.1 0.0
21/02:00am 6.1 1.6 4.4 89 0.7 ENE 17 19 9 10 1023.9 - 0.0
21/01:30am 6.0 1.9 4.5 90 0.6 ENE 15 19 8 10 1024.2 1024.2 0.0
21/01:00am 5.5 1.7 4.0 90 0.6 ENE 13 17 7 9 1024.5 - 0.0
21/12:30am 5.1 0.9 3.6 90 0.6 ENE 15 17 8 9 1024.9 1024.9 0.0
21/12:00am 4.6 0.6 2.9 89 0.7 ENE 13 15 7 8 1025.3 1025.3 0.0
 
Date/Time
CST
Temp
°C
App
Temp
°C
Dew
Point
Rel
Hum
%
Delta-T
°C
Wind Press
QNH
hPa
Press
MSL
hPa
Rain
since 9 am
mm
Dir
 
Spd
km/h
Gust
km/h
Spd
kts
Gust
kts
20/11:30pm 5.5 0.9 3.8 89 0.7 NE 17 20 9 11 1025.4 1025.4 0.0

Other Formats:

Comma delimited format used in spreadsheet applications
http://www.bom.gov.au/fwo/IDS60801/IDS60801.94813.axf

JavaScript Object Notation format (JSON) in row-major order
http://www.bom.gov.au/fwo/IDS60801/IDS60801.94813.json